createdAt,value
2019-05-01T00:00:16.423Z,28.90
2019-05-01T00:01:15.483Z,28.40
2019-05-01T00:02:15.425Z,28.40
2019-05-01T00:03:15.414Z,28.30
2019-05-01T00:04:15.400Z,29.90
2019-05-01T00:05:15.404Z,28.20
2019-05-01T00:06:15.421Z,28.90
2019-05-01T00:07:15.391Z,28.10
2019-05-01T00:08:15.433Z,28.90
2019-05-01T00:09:15.348Z,28.00
2019-05-01T00:10:15.364Z,29.00
2019-05-01T00:11:15.355Z,28.90
2019-05-01T00:12:15.330Z,28.60
2019-05-01T00:13:15.322Z,28.70
2019-05-01T00:14:15.345Z,28.00
2019-05-01T00:15:15.299Z,28.50
2019-05-01T00:16:15.304Z,28.10
2019-05-01T00:17:15.309Z,30.10
2019-05-01T00:18:15.258Z,28.30
2019-05-01T00:19:16.175Z,28.90
2019-05-01T00:20:15.269Z,29.70
2019-05-01T00:21:15.214Z,29.40
2019-05-01T00:22:16.188Z,29.00
2019-05-01T00:23:15.214Z,30.10
2019-05-01T00:24:15.722Z,29.50
2019-05-01T00:25:15.186Z,29.30
2019-05-01T00:26:15.186Z,31.00
2019-05-01T00:27:15.750Z,30.90
2019-05-01T00:28:15.153Z,30.90
2019-05-01T00:29:15.718Z,31.50
2019-05-01T00:30:15.134Z,32.00
2019-05-01T00:31:15.133Z,31.80
2019-05-01T00:32:15.174Z,29.70
2019-05-01T00:33:15.102Z,30.00
2019-05-01T00:34:15.681Z,28.60
2019-05-01T00:35:15.093Z,29.50
2019-05-01T00:36:15.072Z,28.20
2019-05-01T00:37:15.094Z,29.40
2019-05-01T00:38:15.037Z,29.10
2019-05-01T00:39:15.012Z,28.10
2019-05-01T00:40:15.009Z,28.20
2019-05-01T00:41:15.019Z,29.60
2019-05-01T00:42:14.997Z,29.20
2019-05-01T00:43:14.971Z,29.50
2019-05-01T00:44:14.971Z,28.50
2019-05-01T00:45:14.952Z,28.30
2019-05-01T00:46:14.951Z,28.00
2019-05-01T00:47:14.950Z,27.80
2019-05-01T00:48:15.712Z,27.40
2019-05-01T00:49:14.931Z,28.40
2019-05-01T00:50:14.938Z,28.60
2019-05-01T00:51:14.892Z,27.50
2019-05-01T00:52:14.901Z,27.50
2019-05-01T00:53:14.931Z,28.00
2019-05-01T00:54:14.866Z,29.60
2019-05-01T00:55:14.838Z,29.30
2019-05-01T00:56:14.842Z,30.50
2019-05-01T00:57:14.849Z,31.40
2019-05-01T00:58:15.684Z,31.00
2019-05-01T00:59:14.833Z,30.10
2019-05-01T01:00:14.804Z,31.60
2019-05-01T01:01:14.773Z,31.10
2019-05-01T01:02:14.829Z,31.90
2019-05-01T01:03:14.747Z,32.10
2019-05-01T01:04:14.764Z,31.70
2019-05-01T01:05:14.792Z,33.40
2019-05-01T01:06:14.763Z,32.20
2019-05-01T01:07:14.721Z,32.00
2019-05-01T01:08:14.766Z,32.70
2019-05-01T01:09:14.686Z,32.50
2019-05-01T01:10:14.672Z,32.10
2019-05-01T01:11:14.716Z,32.60
2019-05-01T01:12:14.666Z,30.80
2019-05-01T01:13:14.642Z,31.40
2019-05-01T01:14:14.718Z,31.40
2019-05-01T01:15:14.665Z,32.70
2019-05-01T01:16:14.622Z,31.70
2019-05-01T01:17:14.626Z,32.60
2019-05-01T01:18:14.580Z,31.40
2019-05-01T01:19:14.573Z,30.40
2019-05-01T01:20:14.626Z,29.90
2019-05-01T01:21:15.189Z,28.60
2019-05-01T01:22:15.187Z,28.80
2019-05-01T01:23:14.564Z,29.90
2019-05-01T01:24:14.526Z,29.90
2019-05-01T01:25:14.510Z,29.80
2019-05-01T01:26:14.518Z,28.70
2019-05-01T01:27:14.516Z,28.70
2019-05-01T01:28:14.501Z,29.10
2019-05-01T01:29:14.451Z,28.90
2019-05-01T01:30:14.453Z,29.00
2019-05-01T01:31:14.487Z,30.80
2019-05-01T01:32:17.610Z,30.20
2019-05-01T01:33:18.704Z,30.30
2019-05-01T01:34:14.406Z,30.00
2019-05-01T01:35:14.426Z,32.10
2019-05-01T01:36:14.422Z,28.60
2019-05-01T01:37:14.398Z,28.90
2019-05-01T01:38:14.393Z,31.20
2019-05-01T01:39:14.362Z,30.30
2019-05-01T01:40:14.356Z,31.30
2019-05-01T01:41:15.240Z,30.20
2019-05-01T01:42:14.313Z,31.40
2019-05-01T01:43:14.297Z,31.20
2019-05-01T01:44:14.371Z,31.10
2019-05-01T01:45:14.291Z,31.10
2019-05-01T01:46:14.315Z,30.20
2019-05-01T01:47:14.264Z,31.20
2019-05-01T01:48:14.249Z,31.70
2019-05-01T01:49:14.253Z,29.80
2019-05-01T01:50:14.233Z,30.80
2019-05-01T01:51:14.220Z,30.20
2019-05-01T01:52:14.224Z,31.30
2019-05-01T01:53:14.689Z,30.50
2019-05-01T01:54:14.170Z,29.80
2019-05-01T01:55:14.178Z,30.30
2019-05-01T01:56:14.177Z,30.60
2019-05-01T01:57:14.168Z,29.30
2019-05-01T01:58:14.176Z,30.30
2019-05-01T01:59:14.177Z,29.00
2019-05-01T02:00:14.104Z,29.90
2019-05-01T02:01:14.095Z,30.40
2019-05-01T02:02:14.155Z,30.20
2019-05-01T02:03:14.103Z,29.90
2019-05-01T02:04:14.112Z,29.20
2019-05-01T02:05:14.116Z,30.20
2019-05-01T02:06:14.051Z,31.70
2019-05-01T02:07:14.044Z,30.30
2019-05-01T02:08:14.047Z,31.30
2019-05-01T02:09:14.036Z,30.30
2019-05-01T02:10:14.120Z,31.20
2019-05-01T02:11:14.033Z,30.90
2019-05-01T02:12:13.980Z,30.80
2019-05-01T02:13:13.973Z,32.40
2019-05-01T02:14:14.694Z,31.70
2019-05-01T02:15:13.961Z,31.90
2019-05-01T02:16:13.959Z,30.90
2019-05-01T02:17:13.934Z,29.20
2019-05-01T02:18:13.926Z,29.70
2019-05-01T02:19:13.907Z,28.90
2019-05-01T02:20:13.905Z,29.60
2019-05-01T02:21:13.897Z,28.90
2019-05-01T02:22:13.952Z,28.50
2019-05-01T02:23:13.859Z,27.70
2019-05-01T02:24:13.848Z,28.20
2019-05-01T02:25:15.699Z,28.70
2019-05-01T02:26:13.860Z,29.50
2019-05-01T02:27:14.752Z,29.70
2019-05-01T02:28:13.834Z,29.70
2019-05-01T02:29:13.787Z,28.60
2019-05-01T02:30:13.771Z,28.50
2019-05-01T02:31:27.582Z,28.70
2019-05-01T02:32:14.755Z,27.80
2019-05-01T02:33:13.799Z,27.70
2019-05-01T02:34:14.699Z,29.00
2019-05-01T02:35:13.782Z,30.20
2019-05-01T02:36:13.722Z,29.80
2019-05-01T02:37:13.750Z,30.10
2019-05-01T02:38:13.707Z,29.70
2019-05-01T02:39:13.705Z,30.00
2019-05-01T02:40:13.712Z,31.00
2019-05-01T02:41:13.661Z,29.60
2019-05-01T02:42:13.644Z,30.10
2019-05-01T02:43:13.677Z,30.00
2019-05-01T02:44:13.679Z,30.00
2019-05-01T02:45:13.634Z,28.70
2019-05-01T02:46:13.603Z,29.30
2019-05-01T02:47:13.593Z,29.80
2019-05-01T02:48:13.602Z,29.60
2019-05-01T02:49:13.637Z,30.40
2019-05-01T02:50:13.684Z,29.90
2019-05-01T02:51:13.585Z,30.70
2019-05-01T02:52:13.576Z,30.50
2019-05-01T02:53:13.538Z,30.70
2019-05-01T02:54:14.224Z,31.50
2019-05-01T02:55:13.506Z,31.00
2019-05-01T02:56:13.603Z,31.60
2019-05-01T02:57:14.203Z,32.60
2019-05-01T02:58:13.516Z,32.00
2019-05-01T02:59:13.457Z,32.70
2019-05-01T03:00:13.497Z,31.40
2019-05-01T03:01:14.430Z,30.10
2019-05-01T03:02:13.446Z,31.50
2019-05-01T03:03:13.444Z,31.20
2019-05-01T03:04:13.489Z,31.20
2019-05-01T03:05:13.393Z,30.30
2019-05-01T03:06:13.498Z,29.80
2019-05-01T03:07:13.418Z,30.60
2019-05-01T03:08:13.372Z,30.30
2019-05-01T03:09:13.350Z,30.90
2019-05-01T03:10:13.339Z,29.80
2019-05-01T03:11:13.357Z,29.30
2019-05-01T03:12:13.333Z,28.90
2019-05-01T03:13:13.386Z,30.00
2019-05-01T03:14:13.374Z,30.70
2019-05-01T03:15:13.295Z,31.10
2019-05-01T03:16:13.275Z,30.80
2019-05-01T03:17:13.263Z,29.80
2019-05-01T03:18:13.257Z,30.40
2019-05-01T03:19:14.203Z,30.00
2019-05-01T03:20:13.250Z,30.60
2019-05-01T03:21:13.215Z,30.60
2019-05-01T03:22:13.200Z,29.90
2019-05-01T03:23:13.218Z,29.30
2019-05-01T03:24:13.200Z,30.50
2019-05-01T03:25:13.214Z,29.30
2019-05-01T03:26:13.162Z,29.30
2019-05-01T03:27:13.166Z,29.80
2019-05-01T03:28:13.137Z,27.50
2019-05-01T03:29:13.714Z,26.80
2019-05-01T03:30:13.125Z,28.70
2019-05-01T03:31:13.156Z,27.70
2019-05-01T03:32:17.996Z,29.10
2019-05-01T03:33:14.083Z,29.80
2019-05-01T03:34:13.725Z,30.00
2019-05-01T03:35:13.061Z,29.80
2019-05-01T03:36:13.085Z,29.30
2019-05-01T03:37:13.057Z,29.30
2019-05-01T03:38:13.031Z,29.40
2019-05-01T03:39:13.014Z,29.70
2019-05-01T03:40:13.011Z,29.00
2019-05-01T03:41:13.021Z,27.60
2019-05-01T03:42:12.999Z,27.90
2019-05-01T03:43:13.026Z,27.70
2019-05-01T03:44:12.971Z,28.20
2019-05-01T03:45:12.955Z,28.40
2019-05-01T03:46:12.937Z,28.30
2019-05-01T03:47:12.969Z,28.50
2019-05-01T03:48:12.958Z,28.90
2019-05-01T03:49:12.927Z,27.50
2019-05-01T03:50:12.897Z,26.50
2019-05-01T03:51:12.887Z,26.70
2019-05-01T03:52:12.876Z,26.00
2019-05-01T03:53:12.908Z,26.30
2019-05-01T03:54:12.911Z,28.00
2019-05-01T03:55:12.843Z,28.50
2019-05-01T03:56:12.828Z,28.10
2019-05-01T03:57:12.981Z,27.00
2019-05-01T03:58:12.836Z,27.40
2019-05-01T03:59:12.804Z,27.30
2019-05-01T04:00:12.806Z,27.30
2019-05-01T04:01:12.797Z,26.50
2019-05-01T04:02:12.764Z,26.80
2019-05-01T04:03:12.754Z,25.60
2019-05-01T04:04:12.767Z,26.80
2019-05-01T04:05:12.737Z,27.10
2019-05-01T04:06:12.734Z,27.00
2019-05-01T04:07:12.706Z,27.20
2019-05-01T04:08:12.700Z,26.20
2019-05-01T04:09:12.721Z,26.30
2019-05-01T04:10:12.695Z,26.40
2019-05-01T04:11:12.700Z,25.00
2019-05-01T04:12:12.671Z,25.70
2019-05-01T04:13:12.637Z,25.30
2019-05-01T04:14:12.637Z,24.10
2019-05-01T04:15:12.624Z,25.00
2019-05-01T04:16:12.633Z,25.20
2019-05-01T04:17:12.607Z,23.70
2019-05-01T04:18:13.217Z,24.70
2019-05-01T04:19:12.610Z,24.90
2019-05-01T04:20:12.564Z,23.70
2019-05-01T04:21:12.591Z,23.90
2019-05-01T04:22:12.560Z,24.00
2019-05-01T04:23:12.547Z,24.40
2019-05-01T04:24:12.550Z,24.70
2019-05-01T04:25:12.511Z,24.70
2019-05-01T04:26:12.495Z,24.10
2019-05-01T04:27:12.500Z,24.10
2019-05-01T04:28:12.485Z,25.40
2019-05-01T04:29:12.494Z,24.10
2019-05-01T04:30:13.229Z,24.70
2019-05-01T04:31:12.449Z,24.30
2019-05-01T04:32:12.459Z,25.80
2019-05-01T04:33:12.418Z,24.20
2019-05-01T04:34:12.438Z,24.70
2019-05-01T04:35:12.440Z,24.70
2019-05-01T04:36:12.430Z,24.00
2019-05-01T04:37:12.419Z,24.90
2019-05-01T04:38:12.366Z,24.00
2019-05-01T04:39:12.356Z,24.10
2019-05-01T04:40:12.359Z,24.20
2019-05-01T04:41:13.219Z,24.90
2019-05-01T04:42:12.321Z,24.90
2019-05-01T04:43:12.311Z,25.00
2019-05-01T04:44:12.296Z,25.70
2019-05-01T04:45:13.215Z,24.90
2019-05-01T04:46:12.288Z,24.20
2019-05-01T04:47:12.282Z,24.00
2019-05-01T04:48:12.299Z,23.40
2019-05-01T04:49:12.248Z,23.40
2019-05-01T04:50:12.233Z,24.30
2019-05-01T04:51:12.753Z,24.70
2019-05-01T04:52:12.223Z,25.30
2019-05-01T04:53:12.236Z,26.10
2019-05-01T04:54:12.200Z,26.00
2019-05-01T04:55:12.168Z,25.20
2019-05-01T04:56:12.164Z,25.90
2019-05-01T04:57:12.716Z,27.20
2019-05-01T04:58:12.166Z,26.20
2019-05-01T04:59:12.168Z,27.30
2019-05-01T05:00:12.140Z,27.40
2019-05-01T05:01:12.119Z,26.90
2019-05-01T05:02:12.102Z,27.80
2019-05-01T05:03:12.086Z,28.80
2019-05-01T05:04:12.126Z,29.30
2019-05-01T05:05:12.081Z,28.20
2019-05-01T05:06:12.063Z,28.40
2019-05-01T05:07:12.047Z,30.00
2019-05-01T05:08:12.031Z,28.20
2019-05-01T05:09:12.032Z,29.50
2019-05-01T05:10:12.061Z,29.70
2019-05-01T05:11:11.991Z,30.10
2019-05-01T05:12:11.982Z,29.40
2019-05-01T05:13:11.970Z,29.80
2019-05-01T05:14:11.983Z,28.50
2019-05-01T05:15:11.964Z,30.10
2019-05-01T05:16:11.993Z,29.80
2019-05-01T05:17:11.926Z,28.90
2019-05-01T05:18:11.916Z,29.00
2019-05-01T05:19:11.943Z,29.90
2019-05-01T05:20:11.907Z,30.70
2019-05-01T05:21:12.303Z,31.10
2019-05-01T05:22:11.901Z,31.40
2019-05-01T05:23:11.858Z,31.80
2019-05-01T05:24:11.850Z,32.90
2019-05-01T05:25:11.843Z,34.00
2019-05-01T05:26:11.851Z,34.10
2019-05-01T05:27:11.852Z,32.80
2019-05-01T05:28:11.852Z,33.90
2019-05-01T05:29:11.793Z,33.80
2019-05-01T05:30:11.784Z,35.20
2019-05-01T05:31:11.783Z,34.40
2019-05-01T05:32:11.803Z,34.80
2019-05-01T05:33:18.097Z,35.10
2019-05-01T05:34:11.742Z,35.00
2019-05-01T05:35:11.741Z,35.80
2019-05-01T05:36:11.716Z,34.90
2019-05-01T05:37:11.726Z,33.90
2019-05-01T05:38:11.722Z,35.00
2019-05-01T05:39:11.710Z,35.50
2019-05-01T05:40:11.727Z,33.80
2019-05-01T05:41:11.661Z,33.40
2019-05-01T05:42:11.673Z,33.20
2019-05-01T05:43:12.261Z,33.90
2019-05-01T05:44:11.634Z,32.70
2019-05-01T05:45:11.642Z,33.50
2019-05-01T05:46:11.607Z,34.80
2019-05-01T05:47:11.593Z,33.80
2019-05-01T05:48:11.590Z,33.90
2019-05-01T05:49:11.612Z,34.20
2019-05-01T05:50:11.567Z,32.80
2019-05-01T05:51:11.580Z,32.60
2019-05-01T05:52:11.536Z,32.20
2019-05-01T05:53:11.543Z,32.30
2019-05-01T05:54:11.520Z,32.30
2019-05-01T05:55:11.508Z,32.50
2019-05-01T05:56:11.513Z,32.60
2019-05-01T05:57:11.483Z,32.60
2019-05-01T05:58:11.493Z,32.80
2019-05-01T05:59:11.486Z,33.50
2019-05-01T06:00:11.454Z,33.70
2019-05-01T06:01:11.448Z,33.10
2019-05-01T06:02:11.446Z,33.50
2019-05-01T06:03:11.418Z,32.20
2019-05-01T06:04:11.414Z,31.40
2019-05-01T06:05:11.441Z,33.90
2019-05-01T06:06:11.390Z,32.90
2019-05-01T06:07:11.385Z,32.30
2019-05-01T06:08:11.379Z,33.30
2019-05-01T06:09:13.830Z,34.10
2019-05-01T06:10:11.340Z,34.00
2019-05-01T06:11:11.330Z,33.00
2019-05-01T06:12:11.323Z,32.90
2019-05-01T06:13:11.318Z,32.00
2019-05-01T06:14:11.315Z,32.40
2019-05-01T06:15:11.320Z,32.40
2019-05-01T06:16:12.270Z,33.50
2019-05-01T06:17:11.263Z,32.30
2019-05-01T06:18:11.264Z,31.90
2019-05-01T06:19:14.618Z,32.10
2019-05-01T06:20:11.258Z,31.90
2019-05-01T06:21:12.886Z,31.10
2019-05-01T06:22:11.677Z,31.90
2019-05-01T06:23:11.205Z,32.80
2019-05-01T06:24:11.198Z,32.90
2019-05-01T06:25:21.212Z,33.60
2019-05-01T06:26:11.162Z,32.90
2019-05-01T06:27:13.867Z,32.60
2019-05-01T06:28:11.140Z,32.90
2019-05-01T06:29:11.127Z,32.50
2019-05-01T06:30:12.586Z,31.80
2019-05-01T06:31:11.133Z,32.20
2019-05-01T06:32:11.088Z,31.90
2019-05-01T06:33:11.335Z,31.20
2019-05-01T06:34:11.070Z,32.20
2019-05-01T06:35:11.078Z,32.00
2019-05-01T06:36:13.211Z,31.30
2019-05-01T06:37:11.070Z,31.60
2019-05-01T06:38:11.026Z,32.00
2019-05-01T06:39:13.292Z,32.80
2019-05-01T06:40:11.006Z,32.40
2019-05-01T06:41:11.010Z,32.20
2019-05-01T06:42:15.260Z,31.40
2019-05-01T06:43:11.008Z,30.70
2019-05-01T06:44:10.957Z,31.70
2019-05-01T06:45:13.053Z,32.10
2019-05-01T06:46:11.949Z,31.20
2019-05-01T06:47:10.946Z,30.40
2019-05-01T06:48:14.192Z,30.50
2019-05-01T06:49:10.937Z,31.30
2019-05-01T06:50:10.895Z,30.20
2019-05-01T06:51:12.906Z,30.10
2019-05-01T06:52:10.876Z,29.40
2019-05-01T06:53:10.875Z,29.10
2019-05-01T06:54:15.791Z,28.30
2019-05-01T06:55:10.865Z,29.00
2019-05-01T06:56:10.825Z,29.10
2019-05-01T06:57:10.837Z,28.80
2019-05-01T06:58:14.798Z,28.70
2019-05-01T06:59:10.808Z,28.50
2019-05-01T07:00:10.814Z,28.40
2019-05-01T07:01:13.742Z,28.00
2019-05-01T07:02:10.772Z,29.20
2019-05-01T07:03:11.723Z,28.80
2019-05-01T07:04:10.746Z,29.50
2019-05-01T07:05:14.619Z,28.60
2019-05-01T07:06:14.429Z,28.00
2019-05-01T07:07:24.707Z,28.00
2019-05-01T07:08:23.781Z,28.20
2019-05-01T07:09:11.953Z,27.90
2019-05-01T07:10:10.684Z,27.10
2019-05-01T07:11:10.902Z,27.20
2019-05-01T07:12:10.661Z,26.50
2019-05-01T07:13:10.672Z,27.10
2019-05-01T07:14:15.488Z,26.50
2019-05-01T07:15:10.619Z,27.00
2019-05-01T07:16:10.626Z,27.30
2019-05-01T07:17:13.695Z,26.80
2019-05-01T07:18:11.552Z,26.50
2019-05-01T07:19:10.567Z,25.90
2019-05-01T07:20:11.800Z,26.30
2019-05-01T07:21:10.576Z,26.90
2019-05-01T07:22:10.551Z,25.90
2019-05-01T07:23:12.735Z,24.90
2019-05-01T07:24:10.545Z,26.00
2019-05-01T07:25:10.500Z,26.30
2019-05-01T07:26:13.707Z,25.30
2019-05-01T07:27:10.508Z,25.70
2019-05-01T07:28:10.474Z,25.20
2019-05-01T07:29:11.081Z,25.20
2019-05-01T07:30:10.452Z,24.20
2019-05-01T07:31:10.440Z,25.70
2019-05-01T07:32:10.463Z,25.80
2019-05-01T07:33:12.093Z,24.40
2019-05-01T07:34:16.662Z,24.40
2019-05-01T07:35:10.418Z,24.90
2019-05-01T07:36:15.495Z,24.90
2019-05-01T07:37:10.379Z,24.60
2019-05-01T07:38:10.357Z,24.40
2019-05-01T07:39:14.661Z,24.00
2019-05-01T07:40:11.360Z,23.90
2019-05-01T07:41:12.360Z,24.50
2019-05-01T07:42:12.446Z,24.90
2019-05-01T07:43:10.297Z,24.50
2019-05-01T07:44:10.286Z,24.00
2019-05-01T07:45:10.312Z,23.70
2019-05-01T07:46:13.846Z,23.80
2019-05-01T07:47:11.258Z,24.00
2019-05-01T07:48:10.247Z,23.80
2019-05-01T07:49:12.989Z,23.60
2019-05-01T07:50:10.238Z,23.60
2019-05-01T07:51:10.252Z,23.00
2019-05-01T07:52:12.494Z,24.00
2019-05-01T07:53:11.777Z,22.80
2019-05-01T07:54:10.174Z,23.60
2019-05-01T07:55:12.979Z,23.40
2019-05-01T07:56:10.166Z,22.90
2019-05-01T07:57:10.194Z,23.50
2019-05-01T07:58:15.232Z,22.90
2019-05-01T07:59:10.121Z,23.30
2019-05-01T08:00:10.116Z,23.00
2019-05-01T08:01:12.997Z,23.50
2019-05-01T08:02:10.114Z,20.30
2019-05-01T08:03:10.095Z,19.90
2019-05-01T08:04:13.859Z,18.90
2019-05-01T08:05:11.701Z,18.70
2019-05-01T08:06:10.039Z,18.90
2019-05-01T08:07:10.040Z,18.10
2019-05-01T08:08:10.045Z,18.10
2019-05-01T08:09:11.342Z,18.70
2019-05-01T08:10:10.996Z,19.60
2019-05-01T08:11:10.447Z,19.80
2019-05-01T08:12:09.980Z,19.60
2019-05-01T08:13:09.984Z,19.60
2019-05-01T08:14:11.987Z,19.50
2019-05-01T08:15:09.952Z,19.30
2019-05-01T08:16:09.926Z,18.80
2019-05-01T08:17:12.831Z,18.80
2019-05-01T08:18:09.922Z,19.10
2019-05-01T08:19:09.908Z,19.60
2019-05-01T08:20:14.705Z,18.90
2019-05-01T08:21:09.895Z,18.80
2019-05-01T08:22:09.856Z,19.10
2019-05-01T08:23:12.127Z,19.20
2019-05-01T08:24:09.836Z,19.80
2019-05-01T08:25:09.851Z,20.10
2019-05-01T08:26:10.288Z,20.80
2019-05-01T08:27:09.799Z,20.90
2019-05-01T08:28:09.791Z,21.20
2019-05-01T08:29:09.779Z,21.20
2019-05-01T08:30:12.688Z,21.70
2019-05-01T08:31:09.789Z,21.80
2019-05-01T08:32:09.767Z,21.60
2019-05-01T08:33:14.121Z,20.90
2019-05-01T08:34:09.731Z,21.30
2019-05-01T08:35:09.714Z,21.10
2019-05-01T08:36:11.701Z,21.50
2019-05-01T08:37:09.709Z,21.90
2019-05-01T08:38:09.697Z,22.10
2019-05-01T08:39:11.392Z,23.10
2019-05-01T08:40:09.659Z,22.90
2019-05-01T08:41:09.670Z,23.00
2019-05-01T08:42:09.651Z,22.50
2019-05-01T08:43:09.637Z,21.60
2019-05-01T08:44:09.628Z,22.10
2019-05-01T08:45:09.641Z,22.50
2019-05-01T08:46:11.803Z,21.20
2019-05-01T08:47:09.578Z,19.10
2019-05-01T08:48:09.579Z,19.20
2019-05-01T08:49:11.357Z,18.50
2019-05-01T08:50:09.561Z,18.70
2019-05-01T08:51:09.536Z,19.10
2019-05-01T08:52:12.881Z,19.10
2019-05-01T08:53:09.509Z,17.70
2019-05-01T08:54:09.515Z,19.00
2019-05-01T08:55:10.834Z,18.70
2019-05-01T08:56:09.875Z,19.20
2019-05-01T08:57:09.468Z,19.70
2019-05-01T08:58:14.122Z,18.30
2019-05-01T08:59:09.444Z,18.20
2019-05-01T09:00:09.445Z,17.10
2019-05-01T09:01:10.832Z,17.30
2019-05-01T09:02:09.978Z,17.00
2019-05-01T09:03:13.441Z,17.00
2019-05-01T09:04:13.051Z,16.20
2019-05-01T09:05:27.881Z,16.40
2019-05-01T09:06:09.378Z,16.00
2019-05-01T09:07:09.381Z,14.90
2019-05-01T09:08:09.340Z,15.00
2019-05-01T09:09:10.034Z,15.70
2019-05-01T09:10:09.438Z,15.40
2019-05-01T09:11:09.350Z,15.60
2019-05-01T09:12:11.906Z,17.00
2019-05-01T09:13:09.309Z,15.90
2019-05-01T09:14:09.270Z,16.20
2019-05-01T09:15:12.643Z,15.80
2019-05-01T09:16:09.254Z,16.50
2019-05-01T09:17:09.263Z,17.50
2019-05-01T09:18:09.249Z,17.30
2019-05-01T09:19:09.245Z,15.80
2019-05-01T09:20:09.205Z,16.40
2019-05-01T09:21:09.199Z,15.30
2019-05-01T09:22:09.186Z,15.80
2019-05-01T09:23:09.513Z,15.40
2019-05-01T09:24:09.181Z,15.50
2019-05-01T09:25:09.156Z,16.50
2019-05-01T09:26:14.549Z,16.80
2019-05-01T09:27:10.144Z,16.10
2019-05-01T09:28:09.123Z,16.30
2019-05-01T09:29:11.035Z,15.20
2019-05-01T09:30:09.123Z,15.30
2019-05-01T09:31:09.088Z,15.80
2019-05-01T09:32:10.116Z,16.00
2019-05-01T09:33:09.059Z,15.50
2019-05-01T09:34:09.539Z,15.80
2019-05-01T09:35:15.433Z,15.50
2019-05-01T09:36:09.044Z,15.00
2019-05-01T09:37:09.052Z,14.20
2019-05-01T09:38:09.004Z,15.10
2019-05-01T09:39:08.993Z,15.20
2019-05-01T09:40:10.300Z,15.60
2019-05-01T09:41:08.994Z,16.60
2019-05-01T09:42:08.984Z,15.80
2019-05-01T09:43:08.985Z,15.40
2019-05-01T09:44:10.810Z,15.20
2019-05-01T09:45:08.932Z,15.40
2019-05-01T09:46:08.934Z,15.40
2019-05-01T09:47:08.949Z,15.20
2019-05-01T09:48:08.916Z,14.80
2019-05-01T09:49:08.885Z,15.30
2019-05-01T09:50:08.870Z,15.70
2019-05-01T09:51:08.897Z,15.00
2019-05-01T09:52:08.876Z,15.30
2019-05-01T09:53:08.856Z,15.60
2019-05-01T09:54:09.741Z,14.40
2019-05-01T09:55:08.817Z,15.10
2019-05-01T09:56:09.137Z,15.10
2019-05-01T09:57:08.799Z,15.40
2019-05-01T09:58:08.815Z,16.30
2019-05-01T09:59:12.550Z,15.90
2019-05-01T10:00:08.803Z,15.70
2019-05-01T10:01:08.750Z,15.40
2019-05-01T10:02:09.103Z,15.70
2019-05-01T10:03:13.115Z,15.30
2019-05-01T10:04:09.746Z,15.00
2019-05-01T10:05:08.723Z,15.10
2019-05-01T10:06:08.701Z,14.30
2019-05-01T10:07:08.686Z,14.70
2019-05-01T10:08:08.668Z,16.50
2019-05-01T10:09:11.928Z,16.70
2019-05-01T10:10:08.673Z,15.90
2019-05-01T10:11:08.662Z,16.20
2019-05-01T10:12:11.556Z,18.20
2019-05-01T10:13:08.612Z,17.10
2019-05-01T10:14:08.614Z,16.60
2019-05-01T10:15:08.646Z,16.80
2019-05-01T10:16:08.597Z,17.30
2019-05-01T10:17:08.573Z,16.50
2019-05-01T10:18:08.606Z,16.30
2019-05-01T10:19:08.544Z,16.40
2019-05-01T10:20:08.602Z,16.30
2019-05-01T10:21:08.552Z,16.10
2019-05-01T10:22:08.536Z,15.40
2019-05-01T10:23:13.046Z,14.70
2019-05-01T10:24:08.512Z,13.90
2019-05-01T10:25:12.281Z,15.30
2019-05-01T10:26:08.473Z,16.20
2019-05-01T10:27:08.477Z,15.70
2019-05-01T10:28:12.889Z,15.80
2019-05-01T10:29:09.436Z,16.20
2019-05-01T10:30:08.490Z,16.10
2019-05-01T10:31:11.972Z,15.10
2019-05-01T10:32:08.413Z,16.50
2019-05-01T10:33:08.408Z,15.60
2019-05-01T10:34:09.173Z,15.40
2019-05-01T10:35:08.369Z,14.70
2019-05-01T10:36:17.861Z,14.40
2019-05-01T10:37:08.350Z,14.60
2019-05-01T10:38:09.444Z,15.70
2019-05-01T10:39:08.361Z,15.30
2019-05-01T10:40:08.344Z,16.40
2019-05-01T10:41:09.195Z,16.00
2019-05-01T10:42:08.360Z,16.10
2019-05-01T10:43:08.291Z,14.70
2019-05-01T10:44:08.280Z,15.00
2019-05-01T10:45:08.277Z,15.40
2019-05-01T10:46:08.249Z,16.00
2019-05-01T10:47:08.238Z,15.60
2019-05-01T10:48:08.240Z,16.00
2019-05-01T10:49:08.211Z,17.00
2019-05-01T10:50:08.224Z,16.10
2019-05-01T10:51:08.249Z,16.40
2019-05-01T10:52:14.489Z,16.50
2019-05-01T10:53:08.174Z,16.60
2019-05-01T10:54:08.158Z,16.00
2019-05-01T10:55:08.148Z,15.80
2019-05-01T10:56:08.162Z,15.10
2019-05-01T10:57:08.197Z,16.10
2019-05-01T10:58:12.753Z,16.10
2019-05-01T10:59:08.104Z,16.20
2019-05-01T11:00:08.092Z,17.20
2019-05-01T11:01:08.083Z,16.80
2019-05-01T11:02:08.089Z,16.40
2019-05-01T11:03:08.088Z,15.70
2019-05-01T11:04:08.082Z,15.60
2019-05-01T11:05:08.051Z,15.20
2019-05-01T11:06:08.027Z,14.70
2019-05-01T11:07:08.015Z,15.90
2019-05-01T11:08:08.019Z,15.70
2019-05-01T11:09:08.018Z,15.40
2019-05-01T11:10:07.976Z,14.10
2019-05-01T11:11:07.966Z,14.50
2019-05-01T11:12:07.958Z,14.80
2019-05-01T11:13:08.040Z,14.20
2019-05-01T11:14:07.962Z,14.40
2019-05-01T11:15:07.957Z,14.70
2019-05-01T11:16:07.910Z,14.10
2019-05-01T11:17:07.903Z,13.50
2019-05-01T11:18:07.894Z,13.50
2019-05-01T11:19:07.901Z,12.90
2019-05-01T11:20:07.896Z,13.70
2019-05-01T11:21:07.885Z,13.70
2019-05-01T11:22:07.845Z,14.10
2019-05-01T11:23:07.832Z,13.50
2019-05-01T11:24:07.821Z,13.60
2019-05-01T11:25:07.841Z,13.50
2019-05-01T11:26:07.856Z,15.30
2019-05-01T11:27:07.793Z,13.60
2019-05-01T11:28:07.778Z,14.40
2019-05-01T11:29:07.766Z,14.10
2019-05-01T11:30:07.762Z,14.80
2019-05-01T11:31:07.752Z,14.50
2019-05-01T11:32:07.759Z,15.10
2019-05-01T11:33:07.722Z,15.20
2019-05-01T11:34:07.720Z,14.80
2019-05-01T11:35:07.699Z,14.40
2019-05-01T11:36:09.715Z,15.10
2019-05-01T11:37:07.711Z,15.40
2019-05-01T11:38:07.687Z,14.60
2019-05-01T11:39:07.660Z,15.20
2019-05-01T11:40:07.646Z,14.30
2019-05-01T11:41:07.635Z,14.00
2019-05-01T11:42:07.646Z,14.80
2019-05-01T11:43:07.651Z,13.50
2019-05-01T11:44:07.665Z,13.40
2019-05-01T11:45:07.593Z,13.70
2019-05-01T11:46:07.581Z,13.70
2019-05-01T11:47:07.566Z,14.10
2019-05-01T11:48:07.570Z,13.80
2019-05-01T11:49:07.605Z,13.50
2019-05-01T11:50:07.565Z,13.50
2019-05-01T11:51:07.524Z,13.20
2019-05-01T11:52:07.514Z,13.10
2019-05-01T11:53:07.500Z,13.30
2019-05-01T11:54:07.511Z,13.60
2019-05-01T11:55:07.517Z,13.60
2019-05-01T11:56:07.469Z,12.80
2019-05-01T11:57:07.460Z,13.70
2019-05-01T11:58:07.447Z,13.80
2019-05-01T11:59:07.436Z,14.10
2019-05-01T12:00:07.454Z,13.90
2019-05-01T12:01:07.443Z,13.00
2019-05-01T12:02:07.400Z,13.50
2019-05-01T12:03:07.391Z,13.50
2019-05-01T12:04:07.377Z,13.30
2019-05-01T12:05:07.367Z,13.60
2019-05-01T12:06:07.447Z,12.90
2019-05-01T12:07:07.368Z,14.10
2019-05-01T12:08:07.334Z,13.80
2019-05-01T12:09:07.328Z,13.20
2019-05-01T12:10:07.318Z,13.20
2019-05-01T12:11:07.334Z,12.30
2019-05-01T12:12:07.323Z,13.10
2019-05-01T12:13:07.337Z,13.30
2019-05-01T12:14:07.275Z,14.40
2019-05-01T12:15:07.263Z,13.70
2019-05-01T12:16:07.248Z,13.90
2019-05-01T12:17:07.275Z,13.60
2019-05-01T12:18:07.237Z,13.20
2019-05-01T12:19:07.270Z,12.50
2019-05-01T12:20:07.203Z,13.10
2019-05-01T12:21:07.202Z,13.00
2019-05-01T12:22:07.177Z,14.00
2019-05-01T12:23:07.184Z,13.40
2019-05-01T12:24:07.176Z,13.50
2019-05-01T12:25:07.182Z,13.50
2019-05-01T12:26:07.141Z,12.90
2019-05-01T12:27:07.127Z,13.10
2019-05-01T12:28:07.112Z,13.30
2019-05-01T12:29:07.132Z,13.60
2019-05-01T12:30:07.103Z,13.60
2019-05-01T12:31:07.078Z,13.80
2019-05-01T12:32:07.066Z,14.80
2019-05-01T12:33:07.063Z,14.00
2019-05-01T12:34:07.046Z,13.50
2019-05-01T12:35:07.061Z,13.80
2019-05-01T12:36:07.044Z,14.30
2019-05-01T12:37:07.010Z,13.90
2019-05-01T12:38:07.006Z,14.50
2019-05-01T12:39:06.992Z,14.30
2019-05-01T12:40:07.010Z,12.90
2019-05-01T12:41:06.982Z,12.80
2019-05-01T12:42:06.983Z,12.80
2019-05-01T12:43:06.944Z,13.00
2019-05-01T12:44:06.940Z,12.90
2019-05-01T12:45:06.938Z,12.60
2019-05-01T12:46:06.950Z,13.10
2019-05-01T12:47:06.916Z,13.00
2019-05-01T12:48:06.910Z,12.60
2019-05-01T12:49:06.893Z,13.10
2019-05-01T12:50:06.870Z,12.60
2019-05-01T12:51:06.855Z,12.80
2019-05-01T12:52:10.639Z,13.30